sensor_id;sensor_type;location;lat;lon;timestamp;P1;durP1;ratioP1;P2;durP2;ratioP2
73823;SDS011;62154;54.914;73.444;2023-06-14T00:02:14;20.05;;;7.03;;
73823;SDS011;62154;54.914;73.444;2023-06-14T00:04:42;19.83;;;6.57;;
73823;SDS011;62154;54.914;73.444;2023-06-14T00:07:10;18.75;;;7.10;;
73823;SDS011;62154;54.914;73.444;2023-06-14T00:09:40;23.00;;;6.95;;
73823;SDS011;62154;54.914;73.444;2023-06-14T00:12:08;24.88;;;11.63;;
73823;SDS011;62154;54.914;73.444;2023-06-14T00:14:36;20.83;;;7.57;;
73823;SDS011;62154;54.914;73.444;2023-06-14T00:17:08;18.42;;;6.88;;
73823;SDS011;62154;54.914;73.444;2023-06-14T00:19:37;30.38;;;8.55;;
73823;SDS011;62154;54.914;73.444;2023-06-14T00:22:05;29.45;;;8.93;;
73823;SDS011;62154;54.914;73.444;2023-06-14T00:24:33;38.95;;;9.30;;
73823;SDS011;62154;54.914;73.444;2023-06-14T00:27:02;31.77;;;8.32;;
73823;SDS011;62154;54.914;73.444;2023-06-14T00:29:32;21.27;;;6.63;;
73823;SDS011;62154;54.914;73.444;2023-06-14T00:32:00;31.48;;;8.50;;
73823;SDS011;62154;54.914;73.444;2023-06-14T00:34:27;24.98;;;8.13;;
73823;SDS011;62154;54.914;73.444;2023-06-14T00:36:55;37.95;;;9.43;;
73823;SDS011;62154;54.914;73.444;2023-06-14T00:39:23;17.38;;;6.93;;
73823;SDS011;62154;54.914;73.444;2023-06-14T00:41:51;15.70;;;6.00;;
73823;SDS011;62154;54.914;73.444;2023-06-14T00:44:18;17.92;;;6.65;;
73823;SDS011;62154;54.914;73.444;2023-06-14T00:46:46;29.48;;;7.28;;
73823;SDS011;62154;54.914;73.444;2023-06-14T00:49:15;20.77;;;7.47;;
73823;SDS011;62154;54.914;73.444;2023-06-14T00:51:44;17.67;;;7.13;;
73823;SDS011;62154;54.914;73.444;2023-06-14T00:54:12;25.40;;;7.47;;
73823;SDS011;62154;54.914;73.444;2023-06-14T00:56:40;27.38;;;8.07;;
73823;SDS011;62154;54.914;73.444;2023-06-14T00:59:12;17.83;;;8.18;;
73823;SDS011;62154;54.914;73.444;2023-06-14T01:01:40;20.92;;;8.93;;
73823;SDS011;62154;54.914;73.444;2023-06-14T01:04:09;21.83;;;7.90;;
73823;SDS011;62154;54.914;73.444;2023-06-14T01:06:40;17.38;;;7.32;;
73823;SDS011;62154;54.914;73.444;2023-06-14T01:09:32;14.98;;;6.80;;
73823;SDS011;62154;54.914;73.444;2023-06-14T01:15:02;26.33;;;6.80;;
73823;SDS011;62154;54.914;73.444;2023-06-14T01:17:31;20.85;;;6.50;;
73823;SDS011;62154;54.914;73.444;2023-06-14T01:20:03;19.38;;;6.18;;
73823;SDS011;62154;54.914;73.444;2023-06-14T01:22:36;19.75;;;6.90;;
73823;SDS011;62154;54.914;73.444;2023-06-14T01:25:04;27.40;;;7.32;;
73823;SDS011;62154;54.914;73.444;2023-06-14T01:27:32;24.35;;;7.20;;
73823;SDS011;62154;54.914;73.444;2023-06-14T01:30:01;16.70;;;6.55;;
73823;SDS011;62154;54.914;73.444;2023-06-14T01:32:30;17.45;;;5.43;;
73823;SDS011;62154;54.914;73.444;2023-06-14T01:34:57;21.95;;;5.70;;
73823;SDS011;62154;54.914;73.444;2023-06-14T01:37:30;19.08;;;6.03;;
73823;SDS011;62154;54.914;73.444;2023-06-14T01:40:02;21.15;;;5.35;;
73823;SDS011;62154;54.914;73.444;2023-06-14T01:42:36;13.27;;;4.85;;
73823;SDS011;62154;54.914;73.444;2023-06-14T01:45:06;18.05;;;5.97;;
73823;SDS011;62154;54.914;73.444;2023-06-14T01:47:36;20.23;;;5.40;;
73823;SDS011;62154;54.914;73.444;2023-06-14T01:50:03;20.83;;;4.45;;
73823;SDS011;62154;54.914;73.444;2023-06-14T01:52:32;58.75;;;7.50;;
73823;SDS011;62154;54.914;73.444;2023-06-14T01:54:59;27.95;;;5.63;;
73823;SDS011;62154;54.914;73.444;2023-06-14T01:57:30;16.00;;;4.18;;
73823;SDS011;62154;54.914;73.444;2023-06-14T01:59:57;33.85;;;5.20;;
73823;SDS011;62154;54.914;73.444;2023-06-14T02:02:25;23.67;;;3.83;;
73823;SDS011;62154;54.914;73.444;2023-06-14T02:04:53;16.73;;;4.28;;
73823;SDS011;62154;54.914;73.444;2023-06-14T02:07:23;16.55;;;4.30;;
73823;SDS011;62154;54.914;73.444;2023-06-14T02:09:52;38.85;;;5.38;;
73823;SDS011;62154;54.914;73.444;2023-06-14T02:12:20;84.55;;;7.07;;
73823;SDS011;62154;54.914;73.444;2023-06-14T02:14:48;7.78;;;2.78;;
73823;SDS011;62154;54.914;73.444;2023-06-14T02:17:18;12.82;;;3.53;;
73823;SDS011;62154;54.914;73.444;2023-06-14T02:19:46;12.60;;;3.38;;
73823;SDS011;62154;54.914;73.444;2023-06-14T02:22:14;14.73;;;2.95;;
73823;SDS011;62154;54.914;73.444;2023-06-14T02:24:42;8.95;;;3.65;;
73823;SDS011;62154;54.914;73.444;2023-06-14T02:27:10;9.52;;;2.33;;
73823;SDS011;62154;54.914;73.444;2023-06-14T02:29:38;13.45;;;3.00;;
73823;SDS011;62154;54.914;73.444;2023-06-14T02:32:05;25.60;;;3.42;;
73823;SDS011;62154;54.914;73.444;2023-06-14T02:34:34;13.02;;;2.67;;
73823;SDS011;62154;54.914;73.444;2023-06-14T02:37:02;11.60;;;3.17;;
73823;SDS011;62154;54.914;73.444;2023-06-14T02:39:29;5.70;;;2.28;;
73823;SDS011;62154;54.914;73.444;2023-06-14T02:41:57;10.95;;;2.33;;
73823;SDS011;62154;54.914;73.444;2023-06-14T02:44:25;10.60;;;2.50;;
73823;SDS011;62154;54.914;73.444;2023-06-14T02:46:54;9.10;;;2.20;;
73823;SDS011;62154;54.914;73.444;2023-06-14T02:49:22;11.63;;;2.30;;
73823;SDS011;62154;54.914;73.444;2023-06-14T02:51:49;14.48;;;2.50;;
73823;SDS011;62154;54.914;73.444;2023-06-14T02:54:17;14.52;;;3.30;;
73823;SDS011;62154;54.914;73.444;2023-06-14T02:56:44;13.73;;;2.78;;
73823;SDS011;62154;54.914;73.444;2023-06-14T02:59:13;14.60;;;3.07;;
73823;SDS011;62154;54.914;73.444;2023-06-14T03:01:40;15.32;;;2.95;;
73823;SDS011;62154;54.914;73.444;2023-06-14T03:04:22;9.05;;;2.35;;
73823;SDS011;62154;54.914;73.444;2023-06-14T03:06:53;28.38;;;4.13;;
73823;SDS011;62154;54.914;73.444;2023-06-14T03:09:22;7.13;;;2.75;;
73823;SDS011;62154;54.914;73.444;2023-06-14T03:11:50;11.10;;;2.80;;
73823;SDS011;62154;54.914;73.444;2023-06-14T03:14:18;7.15;;;2.55;;
73823;SDS011;62154;54.914;73.444;2023-06-14T03:16:46;8.35;;;2.47;;
73823;SDS011;62154;54.914;73.444;2023-06-14T03:19:16;7.40;;;2.78;;
73823;SDS011;62154;54.914;73.444;2023-06-14T03:21:43;11.25;;;4.03;;
73823;SDS011;62154;54.914;73.444;2023-06-14T03:24:11;15.43;;;3.17;;
73823;SDS011;62154;54.914;73.444;2023-06-14T03:26:39;4.38;;;2.17;;
73823;SDS011;62154;54.914;73.444;2023-06-14T03:29:08;12.02;;;2.58;;
73823;SDS011;62154;54.914;73.444;2023-06-14T03:31:57;5.88;;;2.78;;
73823;SDS011;62154;54.914;73.444;2023-06-14T03:34:34;8.48;;;2.30;;
73823;SDS011;62154;54.914;73.444;2023-06-14T03:37:04;9.10;;;2.45;;
73823;SDS011;62154;54.914;73.444;2023-06-14T03:39:32;6.15;;;2.52;;
73823;SDS011;62154;54.914;73.444;2023-06-14T03:42:00;9.45;;;3.13;;
73823;SDS011;62154;54.914;73.444;2023-06-14T03:44:29;10.35;;;3.10;;
73823;SDS011;62154;54.914;73.444;2023-06-14T03:46:57;11.20;;;3.30;;
73823;SDS011;62154;54.914;73.444;2023-06-14T03:49:26;7.53;;;2.97;;
73823;SDS011;62154;54.914;73.444;2023-06-14T03:51:54;9.60;;;2.60;;
73823;SDS011;62154;54.914;73.444;2023-06-14T03:54:24;17.63;;;3.00;;
73823;SDS011;62154;54.914;73.444;2023-06-14T03:56:54;11.55;;;2.85;;
73823;SDS011;62154;54.914;73.444;2023-06-14T03:59:23;9.57;;;3.60;;
73823;SDS011;62154;54.914;73.444;2023-06-14T04:01:53;4.45;;;2.50;;
73823;SDS011;62154;54.914;73.444;2023-06-14T04:04:24;7.22;;;2.75;;
73823;SDS011;62154;54.914;73.444;2023-06-14T04:06:56;3.10;;;2.15;;
73823;SDS011;62154;54.914;73.444;2023-06-14T04:09:25;4.97;;;2.35;;
73823;SDS011;62154;54.914;73.444;2023-06-14T04:11:53;8.50;;;2.97;;
73823;SDS011;62154;54.914;73.444;2023-06-14T04:14:22;13.75;;;3.53;;
73823;SDS011;62154;54.914;73.444;2023-06-14T04:16:50;9.75;;;2.70;;
73823;SDS011;62154;54.914;73.444;2023-06-14T04:19:20;9.18;;;2.90;;
73823;SDS011;62154;54.914;73.444;2023-06-14T04:21:49;9.73;;;3.00;;
73823;SDS011;62154;54.914;73.444;2023-06-14T04:24:18;8.68;;;2.78;;
73823;SDS011;62154;54.914;73.444;2023-06-14T04:26:49;5.32;;;2.30;;
73823;SDS011;62154;54.914;73.444;2023-06-14T04:29:18;21.13;;;2.95;;
73823;SDS011;62154;54.914;73.444;2023-06-14T04:31:59;4.93;;;2.17;;
73823;SDS011;62154;54.914;73.444;2023-06-14T04:34:28;6.93;;;2.75;;
73823;SDS011;62154;54.914;73.444;2023-06-14T04:37:02;16.23;;;3.88;;
73823;SDS011;62154;54.914;73.444;2023-06-14T04:39:32;6.78;;;2.67;;
73823;SDS011;62154;54.914;73.444;2023-06-14T04:42:01;7.75;;;2.35;;
73823;SDS011;62154;54.914;73.444;2023-06-14T04:44:31;7.88;;;2.53;;
73823;SDS011;62154;54.914;73.444;2023-06-14T04:47:01;8.50;;;2.10;;
73823;SDS011;62154;54.914;73.444;2023-06-14T04:49:29;6.53;;;2.30;;
73823;SDS011;62154;54.914;73.444;2023-06-14T04:51:59;11.27;;;3.00;;
73823;SDS011;62154;54.914;73.444;2023-06-14T04:54:36;6.55;;;2.28;;
73823;SDS011;62154;54.914;73.444;2023-06-14T04:57:09;10.52;;;2.40;;
73823;SDS011;62154;54.914;73.444;2023-06-14T04:59:42;5.18;;;2.08;;
73823;SDS011;62154;54.914;73.444;2023-06-14T05:02:11;4.32;;;1.98;;
73823;SDS011;62154;54.914;73.444;2023-06-14T05:04:38;10.52;;;2.60;;
73823;SDS011;62154;54.914;73.444;2023-06-14T05:07:07;4.55;;;2.00;;
73823;SDS011;62154;54.914;73.444;2023-06-14T05:09:39;6.93;;;2.10;;
73823;SDS011;62154;54.914;73.444;2023-06-14T05:12:06;8.05;;;1.90;;
73823;SDS011;62154;54.914;73.444;2023-06-14T05:14:36;9.32;;;2.75;;
73823;SDS011;62154;54.914;73.444;2023-06-14T05:17:05;7.68;;;2.25;;
73823;SDS011;62154;54.914;73.444;2023-06-14T05:19:33;11.45;;;2.33;;
73823;SDS011;62154;54.914;73.444;2023-06-14T05:22:01;7.88;;;2.13;;
73823;SDS011;62154;54.914;73.444;2023-06-14T05:24:29;9.02;;;2.10;;
73823;SDS011;62154;54.914;73.444;2023-06-14T05:26:58;11.48;;;2.38;;
73823;SDS011;62154;54.914;73.444;2023-06-14T05:29:26;5.50;;;2.30;;
73823;SDS011;62154;54.914;73.444;2023-06-14T05:31:54;6.88;;;2.42;;
73823;SDS011;62154;54.914;73.444;2023-06-14T05:34:25;8.30;;;2.50;;
73823;SDS011;62154;54.914;73.444;2023-06-14T05:36:52;7.88;;;2.10;;
73823;SDS011;62154;54.914;73.444;2023-06-14T05:39:19;7.38;;;2.33;;
73823;SDS011;62154;54.914;73.444;2023-06-14T05:41:47;4.53;;;2.00;;
73823;SDS011;62154;54.914;73.444;2023-06-14T05:44:15;3.78;;;2.05;;
73823;SDS011;62154;54.914;73.444;2023-06-14T05:46:43;2.35;;;2.15;;
73823;SDS011;62154;54.914;73.444;2023-06-14T05:49:10;4.47;;;2.40;;
73823;SDS011;62154;54.914;73.444;2023-06-14T05:51:38;6.53;;;2.65;;
73823;SDS011;62154;54.914;73.444;2023-06-14T05:54:06;8.10;;;2.20;;
73823;SDS011;62154;54.914;73.444;2023-06-14T05:56:34;6.82;;;2.08;;
73823;SDS011;62154;54.914;73.444;2023-06-14T05:59:02;6.45;;;2.45;;
73823;SDS011;62154;54.914;73.444;2023-06-14T06:01:29;8.07;;;2.15;;
73823;SDS011;62154;54.914;73.444;2023-06-14T06:03:57;4.20;;;1.95;;
73823;SDS011;62154;54.914;73.444;2023-06-14T06:06:25;6.53;;;2.22;;
73823;SDS011;62154;54.914;73.444;2023-06-14T06:08:53;7.50;;;2.00;;
73823;SDS011;62154;54.914;73.444;2023-06-14T06:11:22;4.85;;;2.00;;
73823;SDS011;62154;54.914;73.444;2023-06-14T06:13:49;7.60;;;2.10;;
73823;SDS011;62154;54.914;73.444;2023-06-14T06:16:17;17.05;;;3.15;;
73823;SDS011;62154;54.914;73.444;2023-06-14T06:18:45;6.05;;;2.15;;
73823;SDS011;62154;54.914;73.444;2023-06-14T06:21:13;8.70;;;2.00;;
73823;SDS011;62154;54.914;73.444;2023-06-14T06:23:44;9.25;;;2.60;;
73823;SDS011;62154;54.914;73.444;2023-06-14T06:26:13;8.32;;;2.40;;
73823;SDS011;62154;54.914;73.444;2023-06-14T06:28:42;8.38;;;2.13;;
73823;SDS011;62154;54.914;73.444;2023-06-14T06:31:09;6.78;;;2.00;;
73823;SDS011;62154;54.914;73.444;2023-06-14T06:33:38;8.02;;;2.15;;
73823;SDS011;62154;54.914;73.444;2023-06-14T06:36:06;5.82;;;2.28;;
73823;SDS011;62154;54.914;73.444;2023-06-14T06:38:34;8.70;;;2.30;;
73823;SDS011;62154;54.914;73.444;2023-06-14T06:41:02;3.70;;;2.08;;
73823;SDS011;62154;54.914;73.444;2023-06-14T06:43:29;8.82;;;2.20;;
73823;SDS011;62154;54.914;73.444;2023-06-14T06:45:59;7.70;;;2.03;;
73823;SDS011;62154;54.914;73.444;2023-06-14T06:48:30;18.65;;;3.20;;
73823;SDS011;62154;54.914;73.444;2023-06-14T06:50:59;5.05;;;1.92;;
73823;SDS011;62154;54.914;73.444;2023-06-14T06:53:27;8.13;;;2.10;;
73823;SDS011;62154;54.914;73.444;2023-06-14T06:55:54;6.53;;;2.10;;
73823;SDS011;62154;54.914;73.444;2023-06-14T06:58:24;4.75;;;2.15;;
73823;SDS011;62154;54.914;73.444;2023-06-14T07:00:52;6.88;;;2.60;;
73823;SDS011;62154;54.914;73.444;2023-06-14T07:03:20;5.40;;;2.10;;
73823;SDS011;62154;54.914;73.444;2023-06-14T07:05:49;4.25;;;1.90;;
73823;SDS011;62154;54.914;73.444;2023-06-14T07:08:21;10.68;;;2.63;;
73823;SDS011;62154;54.914;73.444;2023-06-14T07:10:48;6.88;;;2.20;;
73823;SDS011;62154;54.914;73.444;2023-06-14T07:13:17;20.92;;;3.28;;
73823;SDS011;62154;54.914;73.444;2023-06-14T07:16:11;9.25;;;2.50;;
73823;SDS011;62154;54.914;73.444;2023-06-14T07:18:47;5.95;;;1.95;;
73823;SDS011;62154;54.914;73.444;2023-06-14T07:21:16;7.00;;;2.00;;
73823;SDS011;62154;54.914;73.444;2023-06-14T07:23:43;10.45;;;2.53;;
73823;SDS011;62154;54.914;73.444;2023-06-14T07:26:11;7.85;;;2.35;;
73823;SDS011;62154;54.914;73.444;2023-06-14T07:28:40;11.23;;;2.80;;
73823;SDS011;62154;54.914;73.444;2023-06-14T07:31:12;5.13;;;2.03;;
73823;SDS011;62154;54.914;73.444;2023-06-14T07:33:40;8.20;;;2.53;;
73823;SDS011;62154;54.914;73.444;2023-06-14T07:36:09;8.52;;;2.30;;
73823;SDS011;62154;54.914;73.444;2023-06-14T07:38:38;5.32;;;2.25;;
73823;SDS011;62154;54.914;73.444;2023-06-14T07:41:07;6.55;;;2.22;;
73823;SDS011;62154;54.914;73.444;2023-06-14T07:43:35;4.57;;;2.10;;
73823;SDS011;62154;54.914;73.444;2023-06-14T07:46:04;11.05;;;2.53;;
73823;SDS011;62154;54.914;73.444;2023-06-14T07:48:33;8.23;;;2.65;;
73823;SDS011;62154;54.914;73.444;2023-06-14T07:51:01;5.38;;;1.73;;
73823;SDS011;62154;54.914;73.444;2023-06-14T07:53:30;6.28;;;2.88;;
73823;SDS011;62154;54.914;73.444;2023-06-14T07:56:05;7.27;;;2.40;;
73823;SDS011;62154;54.914;73.444;2023-06-14T07:58:44;10.60;;;2.40;;
73823;SDS011;62154;54.914;73.444;2023-06-14T08:01:20;7.72;;;1.85;;
73823;SDS011;62154;54.914;73.444;2023-06-14T08:03:48;6.50;;;2.50;;
73823;SDS011;62154;54.914;73.444;2023-06-14T08:06:16;5.65;;;2.67;;
73823;SDS011;62154;54.914;73.444;2023-06-14T08:08:45;4.18;;;1.67;;
73823;SDS011;62154;54.914;73.444;2023-06-14T08:11:15;4.72;;;2.13;;
73823;SDS011;62154;54.914;73.444;2023-06-14T08:13:44;3.88;;;1.77;;
73823;SDS011;62154;54.914;73.444;2023-06-14T08:16:12;4.65;;;2.08;;
73823;SDS011;62154;54.914;73.444;2023-06-14T08:18:39;5.25;;;2.50;;
73823;SDS011;62154;54.914;73.444;2023-06-14T08:21:09;15.10;;;2.53;;
73823;SDS011;62154;54.914;73.444;2023-06-14T08:23:39;11.85;;;2.40;;
73823;SDS011;62154;54.914;73.444;2023-06-14T08:26:10;6.07;;;2.22;;
73823;SDS011;62154;54.914;73.444;2023-06-14T08:28:43;8.57;;;2.40;;
73823;SDS011;62154;54.914;73.444;2023-06-14T08:31:12;5.97;;;2.05;;
73823;SDS011;62154;54.914;73.444;2023-06-14T08:33:40;6.78;;;2.03;;
73823;SDS011;62154;54.914;73.444;2023-06-14T08:36:10;8.18;;;2.28;;
73823;SDS011;62154;54.914;73.444;2023-06-14T08:38:39;8.70;;;2.55;;
73823;SDS011;62154;54.914;73.444;2023-06-14T08:41:11;7.20;;;2.30;;
73823;SDS011;62154;54.914;73.444;2023-06-14T08:43:47;12.10;;;2.38;;
73823;SDS011;62154;54.914;73.444;2023-06-14T08:46:15;3.78;;;1.83;;
73823;SDS011;62154;54.914;73.444;2023-06-14T08:48:48;7.03;;;1.90;;
73823;SDS011;62154;54.914;73.444;2023-06-14T08:51:19;6.97;;;2.15;;
73823;SDS011;62154;54.914;73.444;2023-06-14T08:53:51;9.27;;;2.50;;
73823;SDS011;62154;54.914;73.444;2023-06-14T08:56:27;9.13;;;2.10;;
73823;SDS011;62154;54.914;73.444;2023-06-14T08:58:56;13.13;;;2.20;;
73823;SDS011;62154;54.914;73.444;2023-06-14T09:01:36;5.78;;;1.90;;
73823;SDS011;62154;54.914;73.444;2023-06-14T09:04:03;4.10;;;2.00;;
73823;SDS011;62154;54.914;73.444;2023-06-14T09:06:35;7.90;;;2.50;;
73823;SDS011;62154;54.914;73.444;2023-06-14T09:09:03;5.80;;;2.10;;
73823;SDS011;62154;54.914;73.444;2023-06-14T09:11:30;3.70;;;2.00;;
73823;SDS011;62154;54.914;73.444;2023-06-14T09:14:00;8.73;;;2.05;;
73823;SDS011;62154;54.914;73.444;2023-06-14T09:16:32;6.97;;;2.53;;
73823;SDS011;62154;54.914;73.444;2023-06-14T09:19:00;20.40;;;3.65;;
73823;SDS011;62154;54.914;73.444;2023-06-14T09:21:29;11.93;;;3.13;;
73823;SDS011;62154;54.914;73.444;2023-06-14T09:24:03;10.73;;;2.30;;
73823;SDS011;62154;54.914;73.444;2023-06-14T09:26:31;4.63;;;2.08;;
73823;SDS011;62154;54.914;73.444;2023-06-14T09:28:58;8.52;;;2.22;;
73823;SDS011;62154;54.914;73.444;2023-06-14T09:31:26;9.38;;;2.08;;
73823;SDS011;62154;54.914;73.444;2023-06-14T09:33:58;7.30;;;2.60;;
73823;SDS011;62154;54.914;73.444;2023-06-14T09:36:31;11.40;;;2.30;;
73823;SDS011;62154;54.914;73.444;2023-06-14T09:38:59;15.93;;;1.90;;
73823;SDS011;62154;54.914;73.444;2023-06-14T09:41:39;5.50;;;1.77;;
73823;SDS011;62154;54.914;73.444;2023-06-14T09:44:07;6.00;;;1.75;;
73823;SDS011;62154;54.914;73.444;2023-06-14T09:46:37;11.55;;;1.88;;
73823;SDS011;62154;54.914;73.444;2023-06-14T09:49:05;11.48;;;2.28;;
73823;SDS011;62154;54.914;73.444;2023-06-14T09:51:34;3.35;;;2.05;;
73823;SDS011;62154;54.914;73.444;2023-06-14T09:54:04;6.78;;;1.92;;
73823;SDS011;62154;54.914;73.444;2023-06-14T09:59:02;10.40;;;2.47;;
73823;SDS011;62154;54.914;73.444;2023-06-14T10:01:34;6.82;;;2.03;;
73823;SDS011;62154;54.914;73.444;2023-06-14T10:04:08;4.10;;;1.73;;
73823;SDS011;62154;54.914;73.444;2023-06-14T10:06:38;11.38;;;2.35;;
73823;SDS011;62154;54.914;73.444;2023-06-14T10:09:07;9.70;;;2.40;;
73823;SDS011;62154;54.914;73.444;2023-06-14T10:11:36;5.47;;;2.03;;
73823;SDS011;62154;54.914;73.444;2023-06-14T10:14:12;3.80;;;1.73;;
73823;SDS011;62154;54.914;73.444;2023-06-14T10:16:47;5.63;;;2.30;;
73823;SDS011;62154;54.914;73.444;2023-06-14T10:19:29;6.75;;;1.98;;
73823;SDS011;62154;54.914;73.444;2023-06-14T10:22:09;4.22;;;1.90;;
73823;SDS011;62154;54.914;73.444;2023-06-14T10:24:42;6.55;;;2.08;;
73823;SDS011;62154;54.914;73.444;2023-06-14T10:27:14;6.35;;;2.50;;
73823;SDS011;62154;54.914;73.444;2023-06-14T10:32:26;13.27;;;2.58;;
73823;SDS011;62154;54.914;73.444;2023-06-14T10:35:16;9.37;;;2.23;;
73823;SDS011;62154;54.914;73.444;2023-06-14T10:37:46;7.00;;;2.40;;
73823;SDS011;62154;54.914;73.444;2023-06-14T10:40:32;6.43;;;2.78;;
73823;SDS011;62154;54.914;73.444;2023-06-14T10:43:01;4.70;;;1.80;;
73823;SDS011;62154;54.914;73.444;2023-06-14T10:48:45;12.10;;;2.75;;
73823;SDS011;62154;54.914;73.444;2023-06-14T10:51:21;12.15;;;2.30;;
73823;SDS011;62154;54.914;73.444;2023-06-14T10:53:49;5.00;;;2.33;;
73823;SDS011;62154;54.914;73.444;2023-06-14T10:56:26;3.45;;;2.33;;
73823;SDS011;62154;54.914;73.444;2023-06-14T10:58:56;9.70;;;3.00;;
73823;SDS011;62154;54.914;73.444;2023-06-14T11:01:37;4.80;;;2.40;;
73823;SDS011;62154;54.914;73.444;2023-06-14T11:04:10;8.77;;;3.03;;
73823;SDS011;62154;54.914;73.444;2023-06-14T11:12:20;5.30;;;2.53;;
73823;SDS011;62154;54.914;73.444;2023-06-14T11:14:49;8.77;;;2.80;;
73823;SDS011;62154;54.914;73.444;2023-06-14T11:17:17;13.50;;;3.05;;
73823;SDS011;62154;54.914;73.444;2023-06-14T11:19:44;12.95;;;4.90;;
73823;SDS011;62154;54.914;73.444;2023-06-14T11:22:12;18.35;;;15.52;;
73823;SDS011;62154;54.914;73.444;2023-06-14T11:24:42;5.22;;;2.03;;
73823;SDS011;62154;54.914;73.444;2023-06-14T11:27:10;6.75;;;2.00;;
73823;SDS011;62154;54.914;73.444;2023-06-14T11:29:43;11.35;;;3.13;;
73823;SDS011;62154;54.914;73.444;2023-06-14T11:32:15;6.30;;;2.00;;
73823;SDS011;62154;54.914;73.444;2023-06-14T11:34:46;6.38;;;2.35;;
73823;SDS011;62154;54.914;73.444;2023-06-14T11:37:13;8.95;;;2.28;;
73823;SDS011;62154;54.914;73.444;2023-06-14T11:39:44;6.85;;;2.40;;
73823;SDS011;62154;54.914;73.444;2023-06-14T11:42:15;5.20;;;2.08;;
73823;SDS011;62154;54.914;73.444;2023-06-14T11:44:47;5.43;;;2.20;;
73823;SDS011;62154;54.914;73.444;2023-06-14T11:47:15;7.20;;;2.60;;
73823;SDS011;62154;54.914;73.444;2023-06-14T11:49:43;6.63;;;2.35;;
73823;SDS011;62154;54.914;73.444;2023-06-14T11:52:10;5.97;;;2.17;;
73823;SDS011;62154;54.914;73.444;2023-06-14T11:54:38;11.90;;;2.60;;
73823;SDS011;62154;54.914;73.444;2023-06-14T11:57:07;13.27;;;2.65;;
73823;SDS011;62154;54.914;73.444;2023-06-14T11:59:38;11.60;;;2.67;;
73823;SDS011;62154;54.914;73.444;2023-06-14T12:02:07;6.22;;;2.47;;
73823;SDS011;62154;54.914;73.444;2023-06-14T12:04:38;12.30;;;2.88;;
73823;SDS011;62154;54.914;73.444;2023-06-14T12:07:09;5.63;;;2.13;;
73823;SDS011;62154;54.914;73.444;2023-06-14T12:12:29;12.43;;;3.00;;
73823;SDS011;62154;54.914;73.444;2023-06-14T12:14:58;26.08;;;15.65;;
73823;SDS011;62154;54.914;73.444;2023-06-14T12:17:26;6.75;;;2.22;;
73823;SDS011;62154;54.914;73.444;2023-06-14T12:20:04;10.38;;;3.10;;
73823;SDS011;62154;54.914;73.444;2023-06-14T12:22:37;5.88;;;2.38;;
73823;SDS011;62154;54.914;73.444;2023-06-14T12:25:05;5.32;;;2.28;;
73823;SDS011;62154;54.914;73.444;2023-06-14T12:27:39;9.60;;;2.88;;
73823;SDS011;62154;54.914;73.444;2023-06-14T12:30:10;8.43;;;2.75;;
73823;SDS011;62154;54.914;73.444;2023-06-14T12:32:37;4.57;;;2.95;;
73823;SDS011;62154;54.914;73.444;2023-06-14T12:35:05;7.57;;;2.83;;
73823;SDS011;62154;54.914;73.444;2023-06-14T12:37:32;6.35;;;2.70;;
73823;SDS011;62154;54.914;73.444;2023-06-14T12:40:00;8.20;;;3.38;;
73823;SDS011;62154;54.914;73.444;2023-06-14T12:42:30;13.73;;;3.95;;
73823;SDS011;62154;54.914;73.444;2023-06-14T12:44:57;10.30;;;2.97;;
73823;SDS011;62154;54.914;73.444;2023-06-14T12:47:24;11.60;;;3.03;;
73823;SDS011;62154;54.914;73.444;2023-06-14T12:49:52;6.32;;;2.80;;
73823;SDS011;62154;54.914;73.444;2023-06-14T12:52:19;9.18;;;2.88;;
73823;SDS011;62154;54.914;73.444;2023-06-14T12:54:47;12.21;;;3.33;;
73823;SDS011;62154;54.914;73.444;2023-06-14T12:57:14;10.57;;;3.00;;
73823;SDS011;62154;54.914;73.444;2023-06-14T12:59:42;6.70;;;2.55;;
73823;SDS011;62154;54.914;73.444;2023-06-14T13:02:16;7.30;;;3.47;;
73823;SDS011;62154;54.914;73.444;2023-06-14T13:04:49;9.25;;;3.25;;
73823;SDS011;62154;54.914;73.444;2023-06-14T13:07:17;7.10;;;3.00;;
73823;SDS011;62154;54.914;73.444;2023-06-14T13:09:45;8.80;;;3.28;;
73823;SDS011;62154;54.914;73.444;2023-06-14T13:12:12;9.95;;;3.60;;
73823;SDS011;62154;54.914;73.444;2023-06-14T13:14:40;10.70;;;4.57;;
73823;SDS011;62154;54.914;73.444;2023-06-14T13:17:08;8.47;;;3.37;;
73823;SDS011;62154;54.914;73.444;2023-06-14T13:19:36;4.65;;;2.78;;
73823;SDS011;62154;54.914;73.444;2023-06-14T13:22:04;11.75;;;4.35;;
73823;SDS011;62154;54.914;73.444;2023-06-14T13:24:32;15.70;;;3.55;;
73823;SDS011;62154;54.914;73.444;2023-06-14T13:26:59;10.98;;;3.92;;
73823;SDS011;62154;54.914;73.444;2023-06-14T13:29:27;8.50;;;3.15;;
73823;SDS011;62154;54.914;73.444;2023-06-14T13:31:54;13.73;;;3.45;;
73823;SDS011;62154;54.914;73.444;2023-06-14T13:34:22;12.02;;;4.18;;
73823;SDS011;62154;54.914;73.444;2023-06-14T13:36:53;13.05;;;4.65;;
73823;SDS011;62154;54.914;73.444;2023-06-14T13:39:27;17.40;;;4.65;;
73823;SDS011;62154;54.914;73.444;2023-06-14T13:41:54;4.28;;;2.75;;
73823;SDS011;62154;54.914;73.444;2023-06-14T13:44:24;12.07;;;3.47;;
73823;SDS011;62154;54.914;73.444;2023-06-14T13:46:52;9.27;;;4.53;;
73823;SDS011;62154;54.914;73.444;2023-06-14T13:49:19;10.13;;;4.00;;
73823;SDS011;62154;54.914;73.444;2023-06-14T13:51:47;19.70;;;4.47;;
73823;SDS011;62154;54.914;73.444;2023-06-14T13:54:16;18.88;;;5.75;;
73823;SDS011;62154;54.914;73.444;2023-06-14T13:56:48;26.67;;;9.40;;
73823;SDS011;62154;54.914;73.444;2023-06-14T13:59:17;12.70;;;5.07;;
73823;SDS011;62154;54.914;73.444;2023-06-14T14:01:45;11.88;;;4.30;;
73823;SDS011;62154;54.914;73.444;2023-06-14T14:04:13;16.10;;;4.38;;
73823;SDS011;62154;54.914;73.444;2023-06-14T14:06:42;11.32;;;4.10;;
73823;SDS011;62154;54.914;73.444;2023-06-14T14:09:12;10.40;;;4.13;;
73823;SDS011;62154;54.914;73.444;2023-06-14T14:11:39;10.98;;;4.40;;
73823;SDS011;62154;54.914;73.444;2023-06-14T14:14:08;10.98;;;4.35;;
73823;SDS011;62154;54.914;73.444;2023-06-14T14:16:37;10.93;;;4.50;;
73823;SDS011;62154;54.914;73.444;2023-06-14T14:19:05;12.60;;;4.30;;
73823;SDS011;62154;54.914;73.444;2023-06-14T14:21:33;16.95;;;4.28;;
73823;SDS011;62154;54.914;73.444;2023-06-14T14:24:01;19.80;;;4.32;;
73823;SDS011;62154;54.914;73.444;2023-06-14T14:26:29;14.07;;;10.20;;
73823;SDS011;62154;54.914;73.444;2023-06-14T14:28:56;12.38;;;5.60;;
73823;SDS011;62154;54.914;73.444;2023-06-14T14:31:24;14.00;;;5.00;;
73823;SDS011;62154;54.914;73.444;2023-06-14T14:33:52;16.17;;;4.70;;
73823;SDS011;62154;54.914;73.444;2023-06-14T14:36:27;18.15;;;5.70;;
73823;SDS011;62154;54.914;73.444;2023-06-14T14:38:55;15.57;;;6.22;;
73823;SDS011;62154;54.914;73.444;2023-06-14T14:41:22;31.38;;;14.40;;
73823;SDS011;62154;54.914;73.444;2023-06-14T14:43:52;14.40;;;5.38;;
73823;SDS011;62154;54.914;73.444;2023-06-14T14:46:20;13.80;;;6.13;;
73823;SDS011;62154;54.914;73.444;2023-06-14T14:48:47;11.00;;;6.22;;
73823;SDS011;62154;54.914;73.444;2023-06-14T14:51:15;15.02;;;6.68;;
73823;SDS011;62154;54.914;73.444;2023-06-14T14:53:43;14.45;;;6.72;;
73823;SDS011;62154;54.914;73.444;2023-06-14T14:56:10;20.02;;;12.50;;
73823;SDS011;62154;54.914;73.444;2023-06-14T14:58:38;22.52;;;11.75;;
73823;SDS011;62154;54.914;73.444;2023-06-14T15:01:06;15.60;;;9.70;;
73823;SDS011;62154;54.914;73.444;2023-06-14T15:03:35;16.27;;;6.75;;